Warrenton, Indiana
Current Conditions -  °F | °C
As of 5:54 AM on Friday 28 Nov 2014 (Local Time) from KEVV Reporting Station
Clear Clear  
Wind Chill: 27°   Ceiling: Unl
Heat Index: 27°   Visibility: 10mi
Dew Point: 22°   Wind: 0mph
Humidity: 81%   Direction: NA
Pressure: 30.43"   Gusts: NA
Location:  38.1827°N, 87.5887°W
Report Text: KEVV 281154Z 00000KT 10SM CLR M03/M06 A3043 RMK AO2 SLP308 T10281056 11028 21056 55008
Loading
Personal Weather Stations






























Interactive Weather Map New forecast layout! Learn more

10-Day Weather Forecast

Advertisements
Track Severe Weather on mobile